createdAt,value
2023-12-11T00:01:17.113Z,93.07
2023-12-11T00:16:19.563Z,93.05
2023-12-11T00:31:21.718Z,93.13
2023-12-11T00:46:24.347Z,93.37
2023-12-11T01:01:26.447Z,93.88
2023-12-11T01:16:28.551Z,93.29
2023-12-11T01:31:30.716Z,93.27
2023-12-11T01:46:33.606Z,93.50
2023-12-11T02:01:37.062Z,93.46
2023-12-11T02:16:39.240Z,93.19
2023-12-11T02:31:41.659Z,93.27
2023-12-11T02:46:43.786Z,93.55
2023-12-11T03:01:46.094Z,93.40
2023-12-11T03:16:51.274Z,93.47
2023-12-11T03:31:53.298Z,93.72
2023-12-11T03:46:55.280Z,94.01
2023-12-11T04:01:57.517Z,93.76
2023-12-11T04:16:59.653Z,93.57
2023-12-11T04:32:02.193Z,93.84
2023-12-11T04:47:04.884Z,93.71
2023-12-11T05:02:06.914Z,93.85
2023-12-11T05:17:08.947Z,93.72
2023-12-11T05:32:15.557Z,93.75
2023-12-11T05:47:17.586Z,93.51
2023-12-11T06:02:19.735Z,93.60
2023-12-11T06:17:21.841Z,93.67
2023-12-11T06:32:24.338Z,93.52
2023-12-11T06:47:26.452Z,93.67
2023-12-11T07:02:28.626Z,93.66
2023-12-11T07:17:32.995Z,93.52
2023-12-11T07:32:36.395Z,93.50
2023-12-11T07:47:38.466Z,93.52
2023-12-11T08:02:40.590Z,93.45
2023-12-11T08:17:43.272Z,93.55
2023-12-11T08:32:45.368Z,93.61
2023-12-11T08:47:47.587Z,93.45
2023-12-11T09:02:50.420Z,93.34
2023-12-11T09:17:52.634Z,93.42
2023-12-11T09:32:54.811Z,93.38
2023-12-11T09:48:08.110Z,93.46
2023-12-11T10:03:14.336Z,93.58
2023-12-11T10:18:16.537Z,93.53
2023-12-11T10:33:20.223Z,93.53
2023-12-11T10:48:23.313Z,93.69
2023-12-11T11:03:26.532Z,93.55
2023-12-11T11:18:28.815Z,93.66
2023-12-11T11:33:48.268Z,93.69
2023-12-11T11:48:50.736Z,93.49
2023-12-11T12:03:52.911Z,93.64
2023-12-11T12:18:56.540Z,93.65
2023-12-11T12:33:59.433Z,93.86
2023-12-11T12:49:09.086Z,93.73
2023-12-11T13:04:12.759Z,93.81
2023-12-11T13:19:15.048Z,93.68
2023-12-11T13:34:18.063Z,93.78
2023-12-11T13:49:20.211Z,93.56
2023-12-11T14:04:22.325Z,93.85
2023-12-11T14:19:24.509Z,94.02
2023-12-11T14:34:26.722Z,93.97
2023-12-11T14:49:29.012Z,94.07
2023-12-11T15:04:31.188Z,94.09
2023-12-11T15:19:33.487Z,93.95
2023-12-11T15:34:35.718Z,94.09
2023-12-11T15:49:38.062Z,94.05
2023-12-11T16:04:40.213Z,93.94
2023-12-11T16:19:42.783Z,93.84
2023-12-11T16:34:44.896Z,93.83
2023-12-11T16:49:55.559Z,93.93
2023-12-11T17:05:05.979Z,94.03
2023-12-11T17:20:08.843Z,94.16
2023-12-11T17:35:11.178Z,93.90
2023-12-11T17:50:13.416Z,93.96
2023-12-11T18:05:17.630Z,93.81
2023-12-11T18:20:19.720Z,93.95
2023-12-11T18:35:21.826Z,93.86
2023-12-11T18:50:24.048Z,93.89
2023-12-11T19:05:26.542Z,93.83
2023-12-11T19:20:28.853Z,93.74
2023-12-11T19:35:31.335Z,93.58
2023-12-11T19:50:33.537Z,93.66
2023-12-11T20:05:35.575Z,93.67
2023-12-11T20:20:37.678Z,93.73
2023-12-11T20:35:40.045Z,93.71
2023-12-11T20:50:43.272Z,94.06
2023-12-11T21:05:45.396Z,93.82
2023-12-11T21:20:47.567Z,94.00
2023-12-11T21:35:49.657Z,93.97
2023-12-11T21:50:51.699Z,93.86
2023-12-11T22:05:54.019Z,93.93
2023-12-11T22:20:56.084Z,93.93
2023-12-11T22:35:58.028Z,93.90
2023-12-11T22:51:00.627Z,93.87
2023-12-11T23:06:03.150Z,93.68
2023-12-11T23:21:05.325Z,93.60
2023-12-11T23:36:08.052Z,93.55
2023-12-11T23:51:10.085Z,93.53
